Jardine, Montana
Current Conditions -  °F | °C
As of 2:53 PM on Monday 24 Nov 2014 (Local Time) from KLVM Reporting Station
Clear Clear  
Wind Chill: 28°   Ceiling: Unl
Heat Index: 39°   Visibility: 10mi
Dew Point: 13°   Wind: 25mph
Humidity: 34%   Direction: 260°W
Pressure: 30.14"   Gusts: 36mph
Location:  45.0924°N, 110.236°W
Report Text: KLVM 242153Z AUTO 26022G31KT 10SM CLR 04/M11 A3014 RMK AO2 PK WND 26032/2118 SLP228 T00391106
Loading
Personal Weather Stations






























Interactive Weather Map New forecast layout! Learn more

10-Day Weather Forecast

Advertisements
Track Severe Weather on mobile